Time;durP1;ratioP1;P1;durP2;ratioP2;P2;SDS_P1;SDS_P2;PMS_P1;PMS_P2;Temp;Humidity;BMP_temperature;BMP_pressure;BME280_temperature;BME280_humidity;BME280_pressure;Samples;Min_cycle;Max_cycle;Signal;HPM_P1;HPM_P2
2024/04/23 00:02:48;;;;;;;4.80;4.40;;;9.30;31.20;;;;;;11139848;26;21090;-73
2024/04/23 00:07:53;;;;;;;4.60;4.20;;;9.20;31.00;;;;;;11144144;26;20262;-73
2024/04/23 00:13:01;;;;;;;4.57;4.17;;;9.20;31.00;;;;;;11136165;26;20923;-73
2024/04/23 00:18:06;;;;;;;4.00;3.70;;;9.10;31.10;;;;;;11129055;26;20262;-73
2024/04/23 00:23:12;;;;;;;4.90;4.50;;;9.10;31.10;;;;;;11136026;26;20294;-73
2024/04/23 00:28:20;;;;;;;5.13;4.63;;;9.00;30.90;;;;;;11138375;26;20262;-73
2024/04/23 00:33:25;;;;;;;4.67;4.27;;;9.00;30.90;;;;;;11136793;26;20267;-73
2024/04/23 00:38:30;;;;;;;4.67;4.27;;;8.90;30.90;;;;;;11141213;26;20348;-73
2024/04/23 00:43:37;;;;;;;4.87;4.47;;;8.90;31.10;;;;;;11141046;26;20616;-73
2024/04/23 00:48:42;;;;;;;4.97;4.43;;;8.80;31.30;;;;;;11137986;26;20259;-73
2024/04/23 00:53:48;;;;;;;4.20;3.90;;;8.80;31.30;;;;;;11142372;26;20309;-73
2024/04/23 00:58:56;;;;;;;5.10;4.10;;;8.80;31.40;;;;;;11138628;26;20758;-73
2024/04/23 01:04:02;;;;;;;4.37;3.90;;;8.80;31.40;;;;;;11141695;26;20396;-73
2024/04/23 01:09:08;;;;;;;5.70;3.90;;;8.70;31.20;;;;;;11120346;26;21116;-73
2024/04/23 01:14:16;;;;;;;4.73;3.83;;;8.70;31.30;;;;;;11137312;26;20386;-73
2024/04/23 01:19:29;;;;;;;4.67;4.20;;;8.70;31.40;;;;;;11139017;26;20263;-73
2024/04/23 01:24:38;;;;;;;4.37;3.97;;;8.60;31.30;;;;;;11143472;26;20266;-73
2024/04/23 01:29:48;;;;;;;4.40;4.00;;;8.60;31.30;;;;;;11134844;26;20300;-73
2024/04/23 01:34:53;;;;;;;3.77;3.47;;;8.60;31.30;;;;;;11129183;26;20262;-73
2024/04/23 01:40:00;;;;;;;4.23;3.83;;;8.60;31.30;;;;;;11145538;26;20270;-73
2024/04/23 01:45:11;;;;;;;4.30;3.90;;;8.60;31.30;;;;;;11132025;26;20764;-73
2024/04/23 01:50:17;;;;;;;5.40;4.00;;;8.60;31.20;;;;;;11139873;26;20359;-73
2024/04/23 01:55:22;;;;;;;5.43;3.83;;;8.60;31.30;;;;;;11139473;26;20313;-73
2024/04/23 02:00:34;;;;;;;3.90;3.57;;;8.50;31.20;;;;;;11145026;26;20252;-73
2024/04/23 02:05:41;;;;;;;3.80;3.50;;;8.50;31.90;;;;;;11136191;26;20346;-73
2024/04/23 02:10:46;;;;;;;4.00;3.60;;;8.50;31.30;;;;;;11132501;26;20298;-73
2024/04/23 02:15:54;;;;;;;4.07;3.60;;;8.40;31.10;;;;;;11131222;26;20294;-73
2024/04/23 02:20:59;;;;;;;3.50;3.27;;;8.40;31.10;;;;;;11140451;26;20312;-73
2024/04/23 02:26:04;;;;;;;3.80;3.50;;;8.30;31.10;;;;;;11139610;26;21041;-72
2024/04/23 02:31:13;;;;;;;4.43;3.43;;;8.30;31.10;;;;;;11137206;26;20749;-73
2024/04/23 02:36:18;;;;;;;3.80;3.40;;;8.20;31.10;;;;;;11137321;26;20262;-73
2024/04/23 02:41:23;;;;;;;4.00;3.70;;;8.20;31.10;;;;;;11139738;26;20259;-73
2024/04/23 02:46:30;;;;;;;4.10;3.60;;;8.10;31.00;;;;;;11142660;26;20915;-73
2024/04/23 02:51:35;;;;;;;3.70;3.40;;;8.10;30.90;;;;;;11144696;26;20376;-73
2024/04/23 02:56:40;;;;;;;3.53;3.23;;;8.00;31.00;;;;;;11133721;26;20729;-73
2024/04/23 03:01:48;;;;;;;3.97;3.67;;;8.00;30.90;;;;;;11152007;26;20302;-73
2024/04/23 03:06:54;;;;;;;3.63;3.33;;;7.90;30.90;;;;;;11149052;26;20274;-73
2024/04/23 03:11:59;;;;;;;3.83;3.53;;;7.90;31.10;;;;;;11152505;26;20259;-73
2024/04/23 03:17:07;;;;;;;4.77;3.47;;;7.80;31.10;;;;;;11138676;26;20265;-73
2024/04/23 03:22:12;;;;;;;3.90;3.50;;;7.80;31.30;;;;;;11146844;26;20306;-73
2024/04/23 03:27:17;;;;;;;3.70;3.43;;;7.70;31.30;;;;;;11146166;26;20645;-73
2024/04/23 03:32:24;;;;;;;4.00;3.60;;;7.70;31.30;;;;;;11138939;26;20254;-73
2024/04/23 03:37:29;;;;;;;4.13;3.83;;;7.70;31.60;;;;;;11142614;26;20260;-73
2024/04/23 03:42:34;;;;;;;4.03;3.63;;;7.70;31.60;;;;;;11149297;26;20275;-73
2024/04/23 03:47:42;;;;;;;4.37;3.90;;;7.70;31.70;;;;;;11151911;26;20301;-73
2024/04/23 03:52:47;;;;;;;4.10;3.80;;;7.80;31.80;;;;;;11153163;26;20879;-73
2024/04/23 03:57:55;;;;;;;4.00;3.70;;;7.80;31.70;;;;;;11146872;26;21074;-73
2024/04/23 04:08:23;;;;;;;3.97;3.67;;;7.80;31.50;;;;;;11151950;26;20294;-73
2024/04/23 04:13:28;;;;;;;4.13;3.73;;;7.80;31.50;;;;;;11155632;26;20310;-73
2024/04/23 04:18:36;;;;;;;4.10;3.50;;;7.80;31.50;;;;;;11153539;26;20290;-73
2024/04/23 04:23:41;;;;;;;5.47;4.03;;;7.70;31.50;;;;;;11145181;26;20315;-73
2024/04/23 04:28:46;;;;;;;4.10;3.70;;;7.70;31.40;;;;;;11158545;26;20304;-73
2024/04/23 04:33:54;;;;;;;4.70;3.80;;;7.60;31.30;;;;;;11154771;26;20259;-73
2024/04/23 04:38:59;;;;;;;4.27;3.87;;;7.60;31.40;;;;;;11131251;26;20301;-73
2024/04/23 04:44:04;;;;;;;4.10;3.80;;;7.50;31.40;;;;;;11145360;26;20269;-72
2024/04/23 04:49:12;;;;;;;5.07;3.90;;;7.50;31.40;;;;;;11141334;26;20258;-73
2024/04/23 04:54:17;;;;;;;3.60;3.30;;;7.50;31.60;;;;;;11131962;26;20746;-73
2024/04/23 04:59:22;;;;;;;5.20;3.67;;;7.40;31.60;;;;;;11143995;26;20648;-74
2024/04/23 05:04:29;;;;;;;4.00;3.60;;;7.40;31.60;;;;;;11137422;26;20247;-73
2024/04/23 05:09:34;;;;;;;3.80;3.50;;;7.40;31.70;;;;;;11129856;26;20266;-73
2024/04/23 05:14:39;;;;;;;4.30;3.90;;;7.40;31.70;;;;;;11140371;26;20262;-73
2024/04/23 05:19:47;;;;;;;3.80;3.40;;;7.40;31.80;;;;;;11136668;26;20909;-73
2024/04/23 05:24:52;;;;;;;4.00;3.60;;;7.30;31.70;;;;;;11141437;26;21087;-73
2024/04/23 05:29:58;;;;;;;4.00;3.60;;;7.30;31.60;;;;;;11133930;26;20697;-73
2024/04/23 05:35:06;;;;;;;3.70;3.40;;;7.30;31.80;;;;;;11121443;26;20311;-73
2024/04/23 05:40:12;;;;;;;3.93;3.63;;;7.30;31.80;;;;;;11150189;26;20318;-73
2024/04/23 05:45:18;;;;;;;4.53;3.70;;;7.30;31.70;;;;;;11157719;26;20609;-72
2024/04/23 05:51:00;;;;;;;4.03;3.73;;;7.30;31.60;;;;;;11141086;26;20254;-73
2024/04/23 05:56:08;;;;;;;4.07;3.57;;;7.20;31.60;;;;;;11155018;26;20251;-73
2024/04/23 06:01:15;;;;;;;3.93;3.63;;;7.20;31.70;;;;;;11153739;26;20293;-73
2024/04/23 06:06:24;;;;;;;6.20;3.90;;;7.20;31.70;;;;;;11155655;26;20309;-73
2024/04/23 06:11:31;;;;;;;4.10;3.80;;;7.20;31.60;;;;;;11152594;26;20364;-73
2024/04/23 06:16:37;;;;;;;4.00;3.70;;;7.10;31.70;;;;;;11159281;26;20254;-73
2024/04/23 06:21:42;;;;;;;4.20;3.80;;;7.10;31.60;;;;;;11146799;26;20259;-73
2024/04/23 06:26:50;;;;;;;3.93;3.63;;;7.10;31.80;;;;;;11153774;26;21198;-70
2024/04/23 06:31:55;;;;;;;4.00;3.60;;;7.00;32.50;;;;;;11155806;26;20254;-71
2024/04/23 06:37:00;;;;;;;3.80;3.50;;;7.00;31.80;;;;;;11149288;26;20305;-71
2024/04/23 06:42:09;;;;;;;4.17;3.77;;;7.00;31.80;;;;;;11155361;26;20292;-71
2024/04/23 06:47:14;;;;;;;4.00;3.70;;;7.00;31.90;;;;;;11155987;26;20259;-71
2024/04/23 06:52:19;;;;;;;3.70;3.40;;;7.00;31.90;;;;;;11152850;26;20792;-71
2024/04/23 06:57:26;;;;;;;4.00;3.70;;;7.00;32.00;;;;;;11154068;26;20274;-71
2024/04/23 07:02:31;;;;;;;3.93;3.60;;;7.00;32.00;;;;;;11144388;26;20974;-71
2024/04/23 07:07:36;;;;;;;4.30;3.93;;;7.10;32.20;;;;;;11145119;26;20310;-71
2024/04/23 07:12:44;;;;;;;4.63;3.73;;;7.10;32.20;;;;;;11148298;26;20655;-71
2024/04/23 07:17:49;;;;;;;3.87;3.57;;;7.10;32.10;;;;;;11150070;26;21117;-71
2024/04/23 07:22:54;;;;;;;4.30;3.93;;;7.10;32.00;;;;;;11143926;26;20293;-71
2024/04/23 07:28:02;;;;;;;6.40;3.50;;;7.20;32.20;;;;;;11150292;26;20339;-71
2024/04/23 07:33:07;;;;;;;4.13;3.70;;;7.20;32.30;;;;;;11154555;26;20571;-71
2024/04/23 07:38:12;;;;;;;3.97;3.57;;;7.20;32.20;;;;;;11156125;26;20738;-71
2024/04/23 07:43:20;;;;;;;3.67;3.47;;;7.20;32.20;;;;;;11155430;26;20954;-71
2024/04/23 07:48:27;;;;;;;4.07;3.77;;;7.20;32.40;;;;;;11164212;26;20712;-71
2024/04/23 07:53:33;;;;;;;3.93;3.37;;;7.30;32.50;;;;;;11164187;26;20338;-71
2024/04/23 07:58:41;;;;;;;4.10;3.80;;;7.30;32.50;;;;;;11166824;26;20255;-71
2024/04/23 08:03:46;;;;;;;4.10;3.80;;;7.30;32.60;;;;;;11167728;26;20254;-71
2024/04/23 08:08:51;;;;;;;4.10;3.77;;;7.30;32.30;;;;;;11170514;26;20271;-71
2024/04/23 08:13:58;;;;;;;4.30;3.90;;;7.30;32.40;;;;;;11162001;26;21849;-71
2024/04/23 08:19:03;;;;;;;4.40;4.10;;;7.30;32.50;;;;;;11160263;26;20309;-71
2024/04/23 08:24:09;;;;;;;4.70;4.13;;;7.30;32.40;;;;;;11165328;26;20646;-71
2024/04/23 08:29:16;;;;;;;5.10;4.07;;;7.30;32.50;;;;;;11157911;26;20309;-72
2024/04/23 08:34:21;;;;;;;4.80;4.40;;;7.30;32.60;;;;;;11168063;26;20268;-71
2024/04/23 08:39:26;;;;;;;4.47;4.03;;;7.30;32.60;;;;;;11165450;26;20280;-71
2024/04/23 08:44:38;;;;;;;4.80;4.30;;;7.30;32.70;;;;;;11165094;26;20254;-71
2024/04/23 08:49:44;;;;;;;4.40;4.00;;;7.30;33.20;;;;;;11161778;26;20356;-71
2024/04/23 08:54:49;;;;;;;5.67;5.20;;;7.30;33.00;;;;;;11161448;26;20260;-72
2024/04/23 08:59:57;;;;;;;4.40;4.00;;;7.30;32.90;;;;;;11156180;26;20308;-71
2024/04/23 09:05:04;;;;;;;6.73;4.30;;;7.30;33.20;;;;;;11151736;26;20301;-71
2024/04/23 09:10:10;;;;;;;4.87;4.43;;;7.30;33.20;;;;;;11144548;26;21176;-71
2024/04/23 09:15:18;;;;;;;4.80;4.30;;;7.40;33.50;;;;;;11153620;26;20256;-71
2024/04/23 09:20:25;;;;;;;5.07;4.67;;;7.40;33.70;;;;;;11149905;26;20738;-71
2024/04/23 09:25:35;;;;;;;4.70;4.33;;;7.50;33.50;;;;;;11155872;26;20300;-71
2024/04/23 09:30:45;;;;;;;4.90;4.50;;;7.50;33.70;;;;;;11152526;26;20373;-71
2024/04/23 09:36:01;;;;;;;6.87;4.40;;;7.50;33.70;;;;;;11144970;26;20262;-71
2024/04/23 09:41:07;;;;;;;4.90;4.50;;;7.50;34.10;;;;;;11146889;26;20265;-71
2024/04/23 09:46:14;;;;;;;5.13;4.63;;;7.50;33.50;;;;;;11152866;26;20302;-71
2024/04/23 09:51:21;;;;;;;5.43;4.67;;;7.40;33.80;;;;;;11151097;26;21036;-71
2024/04/23 09:56:26;;;;;;;4.67;4.27;;;7.40;33.70;;;;;;11164310;26;20270;-71
2024/04/23 10:01:34;;;;;;;4.73;4.33;;;7.40;33.70;;;;;;11145887;26;20267;-71
2024/04/23 10:06:46;;;;;;;5.80;4.50;;;7.40;34.10;;;;;;11160000;26;20254;-71
2024/04/23 10:11:55;;;;;;;5.00;4.60;;;7.40;34.20;;;;;;11167684;26;20263;-71
2024/04/23 10:17:09;;;;;;;4.87;4.47;;;7.50;34.40;;;;;;11155629;26;20859;-71
2024/04/23 10:22:14;;;;;;;5.07;4.60;;;7.50;34.60;;;;;;11153554;26;20285;-71
2024/04/23 10:27:21;;;;;;;5.00;4.60;;;7.50;34.10;;;;;;11145833;26;20915;-71
2024/04/23 10:32:30;;;;;;;5.07;4.67;;;7.60;34.30;;;;;;11148019;26;20255;-71
2024/04/23 10:37:36;;;;;;;5.10;4.70;;;7.60;34.50;;;;;;11159204;26;20255;-71
2024/04/23 10:42:43;;;;;;;5.03;4.53;;;7.60;34.30;;;;;;11152243;26;20263;-71
2024/04/23 10:47:56;;;;;;;8.10;7.20;;;7.60;34.40;;;;;;11150684;26;20260;-71
2024/04/23 10:53:05;;;;;;;5.33;4.83;;;7.60;35.10;;;;;;11149868;26;20253;-71
2024/04/23 10:58:11;;;;;;;5.60;4.97;;;7.70;34.80;;;;;;11150997;26;20913;-71
2024/04/23 11:03:20;;;;;;;5.40;4.90;;;7.70;34.60;;;;;;11149908;26;20330;-71
2024/04/23 11:08:26;;;;;;;5.23;4.83;;;7.80;35.10;;;;;;11141771;26;20352;-71
2024/04/23 11:13:32;;;;;;;5.57;4.93;;;7.80;34.60;;;;;;11139583;26;20615;-72
2024/04/23 11:18:44;;;;;;;5.17;4.73;;;7.80;34.80;;;;;;11153372;26;20864;-75
2024/04/23 11:23:52;;;;;;;5.70;5.20;;;7.90;36.10;;;;;;11138026;26;20263;-71
2024/04/23 11:28:58;;;;;;;5.83;5.00;;;7.90;35.50;;;;;;11142407;26;20301;-71
2024/04/23 11:34:08;;;;;;;5.17;4.67;;;8.00;35.20;;;;;;11140147;26;20807;-72
2024/04/23 11:39:13;;;;;;;5.90;5.40;;;8.10;35.50;;;;;;11130214;26;20618;-72
2024/04/23 11:44:18;;;;;;;6.00;5.50;;;8.20;35.10;;;;;;11136785;26;20311;-71
2024/04/23 11:49:26;;;;;;;5.40;5.00;;;8.30;35.10;;;;;;11110092;26;20372;-72
2024/04/23 11:54:31;;;;;;;4.80;4.40;;;8.40;35.40;;;;;;11121268;26;20258;-71
2024/04/23 11:59:41;;;;;;;5.37;4.97;;;8.40;35.10;;;;;;11132321;26;20264;-72
2024/04/23 12:04:50;;;;;;;5.70;5.20;;;8.50;35.10;;;;;;11120423;26;20302;-71
2024/04/23 12:09:56;;;;;;;5.67;5.17;;;8.60;35.50;;;;;;11115614;26;20922;-71
2024/04/23 12:15:02;;;;;;;5.90;5.40;;;8.60;35.10;;;;;;11116208;26;20263;-71
2024/04/23 12:20:11;;;;;;;5.37;4.87;;;8.60;35.20;;;;;;11129059;26;20266;-71
2024/04/23 12:25:17;;;;;;;5.80;5.20;;;8.60;35.40;;;;;;11116787;26;20266;-71
2024/04/23 12:30:23;;;;;;;5.60;5.10;;;8.70;35.20;;;;;;11120189;26;20258;-71
2024/04/23 12:35:31;;;;;;;5.70;5.20;;;8.80;35.40;;;;;;11124349;26;20306;-71
2024/04/23 12:40:36;;;;;;;6.10;5.60;;;8.80;35.50;;;;;;11128467;26;20263;-71
2024/04/23 12:45:42;;;;;;;5.50;5.00;;;8.80;35.30;;;;;;11132096;26;20258;-72
2024/04/23 12:50:49;;;;;;;5.37;4.87;;;8.90;35.30;;;;;;11086456;26;20364;-71
2024/04/23 12:55:55;;;;;;;4.80;4.30;;;8.90;35.40;;;;;;11121884;26;22219;-71
2024/04/23 13:01:00;;;;;;;4.90;4.43;;;8.90;34.80;;;;;;11127185;26;20337;-71
2024/04/23 13:06:08;;;;;;;5.03;4.63;;;9.00;34.70;;;;;;11123087;26;20300;-71
2024/04/23 13:11:13;;;;;;;5.30;4.83;;;9.00;34.60;;;;;;11119153;26;20298;-71
2024/04/23 13:16:18;;;;;;;5.57;4.77;;;8.90;34.30;;;;;;11118978;26;20310;-71
2024/04/23 13:21:28;;;;;;;4.93;4.53;;;8.90;34.40;;;;;;11122547;26;20259;-71
2024/04/23 13:26:33;;;;;;;5.03;4.53;;;8.90;34.30;;;;;;11127353;26;20267;-71
2024/04/23 13:31:38;;;;;;;5.30;4.77;;;9.00;34.40;;;;;;11119880;26;20310;-71
2024/04/23 13:36:46;;;;;;;5.50;4.70;;;9.00;34.30;;;;;;11126859;26;20785;-71
2024/04/23 13:41:51;;;;;;;5.70;4.70;;;9.00;34.40;;;;;;11128460;26;20306;-71
2024/04/23 13:46:56;;;;;;;4.47;4.17;;;9.00;34.30;;;;;;11125273;26;20291;-71
2024/04/23 13:52:04;;;;;;;6.23;5.50;;;9.00;34.20;;;;;;11142224;26;20262;-71
2024/04/23 13:57:09;;;;;;;5.27;4.87;;;9.00;34.40;;;;;;11136654;26;20258;-71
2024/04/23 14:02:16;;;;;;;6.50;5.77;;;9.00;34.20;;;;;;11149550;26;20267;-71
2024/04/23 14:07:24;;;;;;;5.20;4.50;;;9.00;34.20;;;;;;11138652;26;20298;-71
2024/04/23 14:12:29;;;;;;;5.83;5.43;;;9.10;34.50;;;;;;11141533;26;21399;-71
2024/04/23 14:17:35;;;;;;;6.47;5.87;;;9.10;34.10;;;;;;11118228;26;20339;-71
2024/04/23 14:22:42;;;;;;;5.53;5.07;;;9.20;34.10;;;;;;11139438;26;20297;-71
2024/04/23 14:27:47;;;;;;;5.97;5.40;;;9.20;34.10;;;;;;11137291;26;20323;-71
2024/04/23 14:32:52;;;;;;;5.37;4.97;;;9.30;34.20;;;;;;11110464;26;20256;-71
2024/04/23 14:38:00;;;;;;;4.97;4.57;;;9.30;34.10;;;;;;11114051;26;20602;-70
2024/04/23 14:43:05;;;;;;;5.53;5.03;;;9.30;34.90;;;;;;11131962;26;20255;-71
2024/04/23 14:48:10;;;;;;;6.87;4.77;;;9.40;34.30;;;;;;11107295;26;21262;-71
2024/04/23 14:53:19;;;;;;;5.77;5.20;;;9.50;34.30;;;;;;11127334;26;20255;-75
2024/04/23 14:58:26;;;;;;;4.90;4.50;;;9.50;34.40;;;;;;11134198;26;20257;-73
2024/04/23 15:03:31;;;;;;;5.53;5.03;;;9.60;35.40;;;;;;11125350;26;20297;-70
2024/04/23 15:08:40;;;;;;;5.97;4.83;;;9.80;34.80;;;;;;11124910;26;20336;-71
2024/04/23 15:13:45;;;;;;;5.80;5.30;;;9.90;34.00;;;;;;11123535;26;20720;-71
2024/04/23 15:18:50;;;;;;;5.97;5.43;;;10.00;33.10;;;;;;11102880;26;20255;-70
2024/04/23 15:23:58;;;;;;;5.60;5.10;;;10.00;32.60;;;;;;11125854;26;20338;-70
2024/04/23 15:29:03;;;;;;;6.50;5.37;;;10.00;32.60;;;;;;11111455;26;20258;-70
2024/04/23 15:34:09;;;;;;;5.87;5.37;;;10.00;32.60;;;;;;11119330;26;20756;-71
2024/04/23 15:39:16;;;;;;;6.07;5.23;;;10.00;32.60;;;;;;11121542;26;20300;-71
2024/04/23 15:44:23;;;;;;;5.83;5.43;;;10.00;32.40;;;;;;11120268;26;20308;-70
2024/04/23 15:49:29;;;;;;;5.97;5.47;;;10.00;32.60;;;;;;11103187;26;21055;-70
2024/04/23 15:54:36;;;;;;;6.57;5.30;;;10.00;32.60;;;;;;11104362;26;20298;-70
2024/04/23 15:59:41;;;;;;;5.90;5.40;;;10.00;32.60;;;;;;11142031;26;21124;-70
2024/04/23 16:04:46;;;;;;;6.07;5.37;;;10.00;33.20;;;;;;11138388;26;20251;-70
2024/04/23 16:09:54;;;;;;;5.77;5.27;;;10.20;33.20;;;;;;11141023;26;20741;-71
2024/04/23 16:14:59;;;;;;;6.00;5.50;;;10.30;32.90;;;;;;11151783;26;20304;-72
2024/04/23 16:20:04;;;;;;;6.57;6.00;;;10.50;33.30;;;;;;11145366;26;21063;-71
2024/04/23 16:25:12;;;;;;;6.50;5.90;;;10.60;32.70;;;;;;11143355;26;20261;-71
2024/04/23 16:30:17;;;;;;;6.40;5.80;;;10.80;32.10;;;;;;11149706;26;20247;-70
2024/04/23 16:35:22;;;;;;;6.00;5.50;;;10.80;32.10;;;;;;11136348;26;20259;-71
2024/04/23 16:40:30;;;;;;;6.43;5.73;;;10.70;32.00;;;;;;11156566;26;20309;-70
2024/04/23 16:45:35;;;;;;;6.10;5.60;;;10.70;31.80;;;;;;11147681;26;20309;-70
2024/04/23 16:50:40;;;;;;;6.40;5.80;;;10.70;31.80;;;;;;11142873;26;20267;-70
2024/04/23 16:55:48;;;;;;;5.83;5.43;;;10.60;31.90;;;;;;11141962;26;20300;-70
2024/04/23 17:00:53;;;;;;;5.30;4.90;;;10.60;31.70;;;;;;11138043;26;20260;-70
2024/04/23 17:05:58;;;;;;;5.63;5.17;;;10.60;31.70;;;;;;11132466;26;20257;-71
2024/04/23 17:11:06;;;;;;;5.10;4.70;;;10.60;31.70;;;;;;11141426;26;20368;-70
2024/04/23 17:16:18;;;;;;;5.80;5.30;;;10.60;31.70;;;;;;11115250;26;20331;-70
2024/04/23 17:21:24;;;;;;;5.37;4.90;;;10.60;31.30;;;;;;11139863;26;20309;-70
2024/04/23 17:26:31;;;;;;;5.80;5.17;;;10.60;31.70;;;;;;11130744;26;20266;-70
2024/04/23 17:31:36;;;;;;;5.73;5.23;;;10.60;31.30;;;;;;11135392;26;20259;-70
2024/04/23 17:36:41;;;;;;;5.47;4.97;;;10.60;31.60;;;;;;11136600;26;20272;-71
2024/04/23 17:41:49;;;;;;;5.43;4.97;;;10.60;31.70;;;;;;11100469;26;20263;-71
2024/04/23 17:46:54;;;;;;;6.03;5.37;;;10.50;31.40;;;;;;11114795;26;20303;-70
2024/04/23 17:51:59;;;;;;;6.43;5.83;;;10.50;31.60;;;;;;11120829;26;20255;-71
2024/04/23 17:57:08;;;;;;;5.80;5.30;;;10.50;31.60;;;;;;11125414;26;20684;-70
2024/04/23 18:02:13;;;;;;;5.83;5.30;;;10.50;31.50;;;;;;11122603;26;20258;-70
2024/04/23 18:07:18;;;;;;;6.03;5.53;;;10.40;31.50;;;;;;11125407;26;20324;-70
2024/04/23 18:12:26;;;;;;;6.40;5.80;;;10.30;31.60;;;;;;11126650;26;21986;-70
2024/04/23 18:17:35;;;;;;;7.10;6.40;;;10.20;31.70;;;;;;11113182;26;20259;-70
2024/04/23 18:22:41;;;;;;;7.70;6.87;;;10.20;31.80;;;;;;11133730;26;20267;-70
2024/04/23 18:27:49;;;;;;;7.40;6.70;;;10.10;31.80;;;;;;11127073;26;20873;-70
2024/04/23 18:32:54;;;;;;;6.87;6.27;;;10.10;31.90;;;;;;11118892;26;20310;-70
2024/04/23 18:37:59;;;;;;;6.93;6.20;;;10.10;32.00;;;;;;11130650;26;20259;-70
2024/04/23 18:43:07;;;;;;;7.37;6.57;;;10.10;32.10;;;;;;11141758;26;20897;-70
2024/04/23 18:48:12;;;;;;;8.40;7.60;;;10.00;32.30;;;;;;11139231;26;20257;-70
2024/04/23 18:53:17;;;;;;;7.30;6.60;;;9.90;33.30;;;;;;11146578;26;20323;-70
2024/04/23 18:58:25;;;;;;;6.73;6.13;;;9.90;33.50;;;;;;11125413;26;20262;-70
2024/04/23 19:03:32;;;;;;;7.33;6.67;;;9.80;33.60;;;;;;11134982;26;20307;-70
2024/04/23 19:08:38;;;;;;;8.87;7.97;;;9.70;33.60;;;;;;11128193;26;20259;-71
2024/04/23 19:13:46;;;;;;;8.13;7.43;;;9.80;33.80;;;;;;11135874;26;21166;-70
2024/04/23 19:18:51;;;;;;;7.97;7.27;;;9.70;33.80;;;;;;11130717;26;20965;-70
2024/04/23 19:23:57;;;;;;;7.83;7.20;;;9.80;33.80;;;;;;11126187;26;20722;-70
2024/04/23 19:29:05;;;;;;;6.90;6.33;;;9.80;33.80;;;;;;11130618;26;20258;-70
2024/04/23 19:34:10;;;;;;;8.30;7.50;;;9.80;33.90;;;;;;11133680;26;20277;-70
2024/04/23 19:39:15;;;;;;;6.80;6.30;;;9.80;33.80;;;;;;11135962;26;20311;-70
2024/04/23 19:44:23;;;;;;;8.03;7.33;;;9.80;33.90;;;;;;11132016;26;20256;-70
2024/04/23 19:49:28;;;;;;;7.70;7.00;;;9.80;34.10;;;;;;11131761;26;20346;-71
2024/04/23 19:54:33;;;;;;;6.67;6.07;;;9.90;34.00;;;;;;11131241;26;20335;-71
2024/04/23 19:59:41;;;;;;;9.50;8.60;;;9.90;34.00;;;;;;11134665;26;20820;-71
2024/04/23 20:04:46;;;;;;;7.77;7.07;;;9.90;34.10;;;;;;11138565;26;21229;-71
2024/04/23 20:09:51;;;;;;;6.90;6.40;;;9.90;34.00;;;;;;11151536;26;20259;-71
2024/04/23 20:14:58;;;;;;;5.37;4.87;;;9.90;33.90;;;;;;11148759;26;20308;-71
2024/04/23 20:20:03;;;;;;;6.00;5.50;;;9.90;34.00;;;;;;11148468;26;20293;-71
2024/04/23 20:25:09;;;;;;;6.57;5.97;;;9.90;33.90;;;;;;11158069;26;20324;-71
2024/04/23 20:30:17;;;;;;;7.53;6.93;;;9.90;33.90;;;;;;11157325;26;20309;-71
2024/04/23 20:35:22;;;;;;;7.50;6.90;;;9.80;33.90;;;;;;11156431;26;20791;-71
2024/04/23 20:40:27;;;;;;;7.27;6.67;;;9.70;33.80;;;;;;11148158;26;20328;-71
2024/04/23 20:45:34;;;;;;;7.53;6.67;;;9.60;33.90;;;;;;11145371;26;20300;-71
2024/04/23 20:50:40;;;;;;;7.03;6.47;;;9.50;34.20;;;;;;11145643;26;20266;-71
2024/04/23 20:55:45;;;;;;;7.33;6.67;;;9.50;34.00;;;;;;11157065;26;20313;-71
2024/04/23 21:00:53;;;;;;;7.60;6.90;;;9.50;34.10;;;;;;11159727;26;20331;-71
2024/04/23 21:05:58;;;;;;;7.67;7.03;;;9.40;34.30;;;;;;11157730;26;20308;-71
2024/04/23 21:11:03;;;;;;;8.13;7.33;;;9.30;34.20;;;;;;11150843;26;20263;-71
2024/04/23 21:16:10;;;;;;;7.83;7.23;;;9.20;34.20;;;;;;11132468;26;21517;-71
2024/04/23 21:21:16;;;;;;;8.37;7.60;;;9.20;34.50;;;;;;11159772;26;20368;-71
2024/04/23 21:26:21;;;;;;;7.77;7.07;;;9.20;34.50;;;;;;11172857;26;20314;-71
2024/04/23 21:31:28;;;;;;;7.83;7.23;;;9.10;34.50;;;;;;11170830;26;20314;-71
2024/04/23 21:36:33;;;;;;;8.90;8.10;;;9.10;34.80;;;;;;11178113;26;20260;-71
2024/04/23 21:41:38;;;;;;;8.97;8.13;;;9.10;34.80;;;;;;11172620;26;20255;-71
2024/04/23 21:46:46;;;;;;;8.83;8.07;;;9.10;34.80;;;;;;11170561;26;20300;-71
2024/04/23 21:51:51;;;;;;;9.87;8.97;;;9.00;35.10;;;;;;11174738;26;20309;-71
2024/04/23 21:57:17;;;;;;;9.10;8.30;;;9.00;35.00;;;;;;11169039;26;20785;-71
2024/04/23 22:02:24;;;;;;;10.20;9.20;;;9.00;35.00;;;;;;11170824;26;20262;-72
2024/04/23 22:07:29;;;;;;;10.47;9.57;;;9.00;35.40;;;;;;11166512;26;20299;-71
2024/04/23 22:12:34;;;;;;;10.37;9.47;;;8.90;35.10;;;;;;11166888;26;20257;-71
2024/04/23 22:17:43;;;;;;;10.87;9.97;;;8.80;35.30;;;;;;11170943;26;20360;-71
2024/04/23 22:22:48;;;;;;;10.67;9.77;;;8.80;35.80;;;;;;11159243;26;20253;-71
2024/04/23 22:27:52;;;;;;;12.57;11.27;;;8.60;35.60;;;;;;11162922;26;20266;-71
2024/04/23 22:33:00;;;;;;;11.10;10.10;;;8.60;35.80;;;;;;11172654;26;20266;-71
2024/04/23 22:38:06;;;;;;;10.63;9.70;;;8.60;36.20;;;;;;11162182;26;20252;-71
2024/04/23 22:43:11;;;;;;;11.17;10.17;;;8.60;35.90;;;;;;11167572;26;20289;-71
2024/04/23 22:48:18;;;;;;;10.57;9.67;;;8.60;36.00;;;;;;11164353;26;20259;-71
2024/04/23 22:53:23;;;;;;;10.63;9.50;;;8.60;36.20;;;;;;11160862;26;20769;-71
2024/04/23 22:58:28;;;;;;;10.57;9.47;;;8.60;35.90;;;;;;11167396;26;20267;-71
2024/04/23 23:03:36;;;;;;;10.20;9.30;;;8.70;35.90;;;;;;11158738;26;20258;-71
2024/04/23 23:08:41;;;;;;;10.87;9.80;;;8.60;36.20;;;;;;11147673;26;20377;-71
2024/04/23 23:13:46;;;;;;;10.50;9.53;;;8.70;35.90;;;;;;11168614;26;20301;-71
2024/04/23 23:18:54;;;;;;;10.63;9.63;;;8.70;36.00;;;;;;11159485;26;20270;-71
2024/04/23 23:23:59;;;;;;;10.30;9.27;;;8.70;36.30;;;;;;11159791;26;20304;-71
2024/04/23 23:29:04;;;;;;;10.57;9.60;;;8.70;36.00;;;;;;11168979;26;21134;-71
2024/04/23 23:34:11;;;;;;;9.73;8.83;;;8.60;35.90;;;;;;11170858;26;20273;-71
2024/04/23 23:39:16;;;;;;;9.93;9.13;;;8.60;36.30;;;;;;11148584;26;20255;-71
2024/04/23 23:44:22;;;;;;;10.90;10.00;;;8.50;36.00;;;;;;11143132;26;20614;-71
2024/04/23 23:49:30;;;;;;;10.90;9.90;;;8.40;36.20;;;;;;11147237;26;20868;-71
2024/04/23 23:54:35;;;;;;;11.40;10.30;;;8.40;36.70;;;;;;11150018;26;20313;-71
2024/04/23 23:59:40;;;;;;;11.03;10.13;;;8.30;36.50;;;;;;11140310;26;20268;-71
